createdAt,value
2016-05-28T00:00:07.985Z,87.6
2016-05-28T00:00:17.970Z,87.9
2016-05-28T00:00:27.970Z,88
2016-05-28T00:00:37.954Z,87.8
2016-05-28T00:00:47.941Z,87.7
2016-05-28T00:00:57.926Z,87.9
2016-05-28T00:01:07.926Z,87.5
2016-05-28T00:01:17.910Z,87.7
2016-05-28T00:01:27.894Z,87.7
2016-05-28T00:01:37.879Z,87.7
2016-05-28T00:01:47.882Z,87.5
2016-05-28T00:01:57.866Z,87.5
2016-05-28T00:02:07.851Z,87.8
2016-05-28T00:02:17.835Z,87.9
2016-05-28T00:02:27.835Z,88
2016-05-28T00:02:37.819Z,87.4
2016-05-28T00:02:47.807Z,88
2016-05-28T00:02:57.791Z,87.6
2016-05-28T00:03:07.791Z,88.1
2016-05-28T00:03:17.775Z,88
2016-05-28T00:03:27.760Z,87.8
2016-05-28T00:03:37.744Z,87.8
2016-05-28T00:03:47.746Z,87.5
2016-05-28T00:03:57.731Z,87.9
2016-05-28T00:04:07.715Z,87.9
2016-05-28T00:04:17.699Z,88
2016-05-28T00:04:27.699Z,88
2016-05-28T00:04:37.965Z,88
2016-05-28T00:04:47.671Z,87.7
2016-05-28T00:04:57.655Z,87.8
2016-05-28T00:05:07.640Z,87.7
2016-05-28T00:05:17.640Z,87.8
2016-05-28T00:05:27.624Z,88.1
2016-05-28T00:05:37.609Z,88.4
2016-05-28T00:05:47.596Z,88
2016-05-28T00:05:57.596Z,88.3
2016-05-28T00:06:07.580Z,88.2
2016-05-28T00:06:17.565Z,88
2016-05-28T00:06:27.565Z,87.8
2016-05-28T00:06:37.549Z,87.8
2016-05-28T00:06:47.535Z,87.8
2016-05-28T00:06:57.535Z,88
2016-05-28T00:07:07.504Z,87.8
2016-05-28T00:07:17.504Z,87.9
2016-05-28T00:07:27.489Z,87.8
2016-05-28T00:07:37.473Z,87.7
2016-05-28T00:07:47.461Z,87.9
2016-05-28T00:07:57.446Z,88
2016-05-28T00:08:07.446Z,88.1
2016-05-28T00:08:17.430Z,88.1
2016-05-28T00:08:27.430Z,88.1
2016-05-28T00:08:37.414Z,88.2
2016-05-28T00:08:47.401Z,88
2016-05-28T00:08:57.385Z,88.3
2016-05-28T00:09:07.385Z,88.2
2016-05-28T00:09:17.370Z,88.1
2016-05-28T00:09:27.354Z,88.2
2016-05-28T00:09:37.338Z,88.1
2016-05-28T00:09:47.325Z,88.1
2016-05-28T00:09:57.325Z,88.2
2016-05-28T00:10:07.309Z,88.1
2016-05-28T00:10:17.293Z,88
2016-05-28T00:10:27.278Z,88
2016-05-28T00:10:37.278Z,88
2016-05-28T00:10:47.266Z,88.1
2016-05-28T00:10:57.251Z,87.8
2016-05-28T00:11:07.235Z,88.1
2016-05-28T00:11:17.219Z,88.2
2016-05-28T00:11:27.219Z,88.1
2016-05-28T00:11:37.204Z,88.8
2016-05-28T00:11:47.190Z,88.8
2016-05-28T00:11:57.174Z,89
2016-05-28T00:12:07.174Z,88.5
2016-05-28T00:12:17.159Z,88.6
2016-05-28T00:12:27.143Z,88.7
2016-05-28T00:12:37.128Z,88.8
2016-05-28T00:12:47.115Z,88.8
2016-05-28T00:12:57.115Z,88.7
2016-05-28T00:13:07.099Z,88.6
2016-05-28T00:13:17.084Z,88.7
2016-05-28T00:13:27.068Z,88.7
2016-05-28T00:13:37.068Z,88.6
2016-05-28T00:13:47.055Z,88.4
2016-05-28T00:13:57.040Z,88.7
2016-05-28T00:14:07.040Z,88.8
2016-05-28T00:14:17.024Z,88.6
2016-05-28T00:14:27.009Z,88.4
2016-05-28T00:14:36.993Z,88.4
2016-05-28T00:14:46.979Z,88.8
2016-05-28T00:14:56.979Z,88.6
2016-05-28T00:15:06.964Z,88.7
2016-05-28T00:15:16.948Z,88.8
2016-05-28T00:15:26.932Z,88.6
2016-05-28T00:15:36.917Z,88.6
2016-05-28T00:15:46.920Z,88.8
2016-05-28T00:15:56.904Z,88.6
2016-05-28T00:16:06.889Z,88.7
2016-05-28T00:16:16.889Z,88.5
2016-05-28T00:16:26.873Z,88.7
2016-05-28T00:16:36.857Z,88.5
2016-05-28T00:16:46.844Z,88.9
2016-05-28T00:16:56.828Z,88.8
2016-05-28T00:17:06.828Z,88.6
2016-05-28T00:17:16.812Z,88.8
2016-05-28T00:17:26.797Z,88.8
2016-05-28T00:17:36.797Z,88.8
2016-05-28T00:17:46.784Z,88.7
2016-05-28T00:17:56.769Z,88.8
2016-05-28T00:18:06.753Z,88.7
2016-05-28T00:18:16.737Z,88.8
2016-05-28T00:18:26.737Z,88.8
2016-05-28T00:18:36.722Z,88.8
2016-05-28T00:18:46.706Z,88.8
2016-05-28T00:18:56.693Z,88.7
2016-05-28T00:19:06.693Z,88.5
2016-05-28T00:19:16.678Z,89.1
2016-05-28T00:19:26.662Z,89.1
2016-05-28T00:19:36.662Z,89.3
2016-05-28T00:19:46.647Z,89.3
2016-05-28T00:19:56.634Z,89.3
2016-05-28T00:20:06.618Z,89.4
2016-05-28T00:20:16.603Z,88.6
2016-05-28T00:20:26.603Z,89.1
2016-05-28T00:20:36.603Z,89.3
2016-05-28T00:20:46.571Z,89.1
2016-05-28T00:20:56.558Z,88.9
2016-05-28T00:21:06.558Z,89.1
2016-05-28T00:21:16.542Z,89.1
2016-05-28T00:21:26.527Z,89.2
2016-05-28T00:21:36.527Z,89.7
2016-05-28T00:21:46.511Z,88.9
2016-05-28T00:21:56.498Z,89.9
2016-05-28T00:22:06.483Z,89.2
2016-05-28T00:22:16.467Z,89.2
2016-05-28T00:22:26.451Z,89.1
2016-05-28T00:22:36.451Z,89
2016-05-28T00:22:46.436Z,88.9
2016-05-28T00:22:56.423Z,89
2016-05-28T00:23:06.408Z,89.3
2016-05-28T00:23:16.408Z,89.4
2016-05-28T00:23:26.392Z,89.5
2016-05-28T00:23:36.376Z,89.4
2016-05-28T00:23:46.361Z,89.3
2016-05-28T00:23:56.364Z,89.3
2016-05-28T00:24:06.348Z,89.5
2016-05-28T00:24:16.332Z,89.5
2016-05-28T00:24:26.317Z,89.5
2016-05-28T00:24:36.317Z,89.4
2016-05-28T00:24:46.301Z,89.7
2016-05-28T00:24:56.288Z,89.4
2016-05-28T00:25:06.288Z,89.1
2016-05-28T00:25:16.272Z,89.5
2016-05-28T00:25:26.256Z,88.9
2016-05-28T00:25:36.241Z,89
2016-05-28T00:25:46.225Z,88.8
2016-05-28T00:25:56.211Z,89.7
2016-05-28T00:26:06.211Z,89.2
2016-05-28T00:26:16.196Z,89.9
2016-05-28T00:26:26.180Z,89.2
2016-05-28T00:26:36.165Z,89.9
2016-05-28T00:26:46.165Z,89.7
2016-05-28T00:26:56.153Z,89.4
2016-05-28T00:27:06.137Z,88.8
2016-05-28T00:27:16.122Z,89.2
2016-05-28T00:27:26.122Z,89.4
2016-05-28T00:27:36.106Z,89.1
2016-05-28T00:27:46.090Z,88.8
2016-05-28T00:27:56.077Z,89
2016-05-28T00:28:06.077Z,89
2016-05-28T00:28:16.061Z,89.1
2016-05-28T00:28:26.046Z,88.8
2016-05-28T00:28:36.030Z,89.6
2016-05-28T00:28:46.030Z,89.9
2016-05-28T00:28:56.017Z,89.1
2016-05-28T00:29:06.002Z,89.1
2016-05-28T00:29:15.986Z,88.9
2016-05-28T00:29:25.970Z,89.7
2016-05-28T00:29:35.970Z,89.7
2016-05-28T00:29:45.955Z,89.1
2016-05-28T00:29:55.942Z,89.2
2016-05-28T00:30:05.927Z,89
2016-05-28T00:30:15.927Z,89.1
2016-05-28T00:30:25.911Z,89.2
2016-05-28T00:30:35.895Z,89
2016-05-28T00:30:45.880Z,89
2016-05-28T00:30:55.882Z,89.1
2016-05-28T00:31:05.866Z,89.3
2016-05-28T00:31:15.850Z,89.4
2016-05-28T00:31:25.835Z,89.9
2016-05-28T00:31:35.835Z,89.4
2016-05-28T00:31:45.819Z,89.1
2016-05-28T00:31:55.807Z,89.3
2016-05-28T00:32:05.791Z,89.2
2016-05-28T00:32:15.791Z,89.7
2016-05-28T00:32:25.775Z,89.4
2016-05-28T00:32:35.760Z,89
2016-05-28T00:32:45.744Z,89.3
2016-05-28T00:32:55.747Z,89.6
2016-05-28T00:33:05.731Z,89.2
2016-05-28T00:33:15.716Z,89.5
2016-05-28T00:33:25.700Z,89.3
2016-05-28T00:33:35.700Z,89.5
2016-05-28T00:33:45.685Z,89.1
2016-05-28T00:33:55.671Z,89.6
2016-05-28T00:34:05.655Z,89.7
2016-05-28T00:34:15.640Z,89.5
2016-05-28T00:34:25.640Z,90
2016-05-28T00:34:35.624Z,89.8
2016-05-28T00:34:45.624Z,90.2
2016-05-28T00:34:55.611Z,89.7
2016-05-28T00:35:05.752Z,90.1
2016-05-28T00:35:15.580Z,90.3
2016-05-28T00:35:25.565Z,89.9
2016-05-28T00:35:35.549Z,89.9
2016-05-28T00:35:45.533Z,89.8
2016-05-28T00:35:55.536Z,90.2
2016-05-28T00:36:05.521Z,89.7
2016-05-28T00:36:15.505Z,90.1
2016-05-28T00:36:25.505Z,90.1
2016-05-28T00:36:35.489Z,90
2016-05-28T00:36:45.474Z,90.1
2016-05-28T00:36:55.461Z,90.2
2016-05-28T00:37:05.461Z,89.8
2016-05-28T00:37:15.446Z,89.8
2016-05-28T00:37:25.430Z,89.7
2016-05-28T00:37:35.414Z,89.8
2016-05-28T00:37:45.399Z,89.9
2016-05-28T00:37:55.401Z,89.7
2016-05-28T00:38:05.385Z,89.8
2016-05-28T00:38:15.369Z,89.8
2016-05-28T00:38:25.369Z,89.7
2016-05-28T00:38:35.354Z,89.8
2016-05-28T00:38:45.338Z,90
2016-05-28T00:38:55.326Z,90.2
2016-05-28T00:39:05.326Z,89.9
2016-05-28T00:39:15.310Z,90
2016-05-28T00:39:25.294Z,89.8
2016-05-28T00:39:35.279Z,89.9
2016-05-28T00:39:45.263Z,90.1
2016-05-28T00:39:55.265Z,90.2
2016-05-28T00:40:05.249Z,90.7
2016-05-28T00:40:15.234Z,90.7
2016-05-28T00:40:25.218Z,90.9
2016-05-28T00:40:35.218Z,90.4
2016-05-28T00:40:45.203Z,90.3
2016-05-28T00:40:55.190Z,90.6
2016-05-28T00:41:05.174Z,90.5
2016-05-28T00:41:15.159Z,90.7
2016-05-28T00:41:25.159Z,90.7
2016-05-28T00:41:35.143Z,90.6
2016-05-28T00:41:45.127Z,90.1
2016-05-28T00:41:55.115Z,89.5
2016-05-28T00:42:05.099Z,89.6
2016-05-28T00:42:15.099Z,89.9
2016-05-28T00:42:25.084Z,90.5
2016-05-28T00:42:35.068Z,90
2016-05-28T00:42:45.052Z,89.8
2016-05-28T00:42:55.055Z,90.3
2016-05-28T00:43:05.055Z,90.4
2016-05-28T00:43:15.024Z,89.8
2016-05-28T00:43:25.008Z,89.9
2016-05-28T00:43:35.008Z,89.8
2016-05-28T00:43:44.993Z,89.9
2016-05-28T00:43:54.979Z,89.9
2016-05-28T00:44:04.979Z,89.8
2016-05-28T00:44:14.964Z,89.9
2016-05-28T00:44:24.964Z,90
2016-05-28T00:44:34.932Z,90.1
2016-05-28T00:44:44.932Z,89.7
2016-05-28T00:44:54.920Z,89.9
2016-05-28T00:45:04.904Z,89.9
2016-05-28T00:45:14.888Z,89.4
2016-05-28T00:45:24.873Z,90.4
2016-05-28T00:45:34.873Z,89.5
2016-05-28T00:45:44.857Z,90.3
2016-05-28T00:45:54.845Z,90.3
2016-05-28T00:46:04.829Z,89.8
2016-05-28T00:46:14.829Z,89.8
2016-05-28T00:46:24.813Z,90.1
2016-05-28T00:46:34.798Z,90.5
2016-05-28T00:46:44.782Z,90.5
2016-05-28T00:46:54.769Z,89.8
2016-05-28T00:47:04.769Z,90.6
2016-05-28T00:47:14.754Z,90.6
2016-05-28T00:47:24.754Z,90.7
2016-05-28T00:47:34.723Z,90.7
2016-05-28T00:47:44.723Z,90.9
2016-05-28T00:47:54.709Z,90.4
2016-05-28T00:48:04.693Z,90.7
2016-05-28T00:48:14.678Z,90.3
2016-05-28T00:48:24.678Z,90.3
2016-05-28T00:48:34.662Z,90.3
2016-05-28T00:48:44.662Z,90.5
2016-05-28T00:48:54.634Z,90.6
2016-05-28T00:49:04.634Z,90.5
2016-05-28T00:49:14.618Z,90.8
2016-05-28T00:49:25.071Z,91
2016-05-28T00:49:34.603Z,90.8
2016-05-28T00:49:44.587Z,91
2016-05-28T00:49:54.573Z,90.6
2016-05-28T00:50:05.073Z,90.5
2016-05-28T00:50:14.917Z,90.6
2016-05-28T00:50:24.526Z,91
2016-05-28T00:50:34.526Z,91.1
2016-05-28T00:50:44.511Z,91
2016-05-28T00:50:54.498Z,91
2016-05-28T00:51:04.498Z,91.1
2016-05-28T00:51:14.483Z,91
2016-05-28T00:51:24.467Z,90.9
2016-05-28T00:51:34.451Z,90.9
2016-05-28T00:51:44.436Z,90.8
2016-05-28T00:51:54.439Z,90.9
2016-05-28T00:52:04.423Z,91
2016-05-28T00:52:14.407Z,91.1
2016-05-28T00:52:24.407Z,91
2016-05-28T00:52:34.392Z,90.7
2016-05-28T00:52:44.376Z,90.9
2016-05-28T00:52:54.363Z,90.9
2016-05-28T00:53:04.347Z,91
2016-05-28T00:53:14.347Z,90.9
2016-05-28T00:53:24.331Z,91
2016-05-28T00:53:34.316Z,90.8
2016-05-28T00:53:44.300Z,90.9
2016-05-28T00:53:54.303Z,90.8
2016-05-28T00:54:04.287Z,90.9
2016-05-28T00:54:14.272Z,90.4
2016-05-28T00:54:24.256Z,90.6
2016-05-28T00:54:34.256Z,90.8
2016-05-28T00:54:44.241Z,90.5
2016-05-28T00:54:54.228Z,91
2016-05-28T00:55:04.212Z,90.7
2016-05-28T00:55:14.197Z,90.8
2016-05-28T00:55:24.197Z,91.1
2016-05-28T00:55:34.181Z,91.1
2016-05-28T00:55:44.165Z,91.1
2016-05-28T00:55:54.167Z,91
2016-05-28T00:56:04.152Z,91
2016-05-28T00:56:14.136Z,91
2016-05-28T00:56:24.121Z,91
2016-05-28T00:56:34.105Z,91
2016-05-28T00:56:44.089Z,91.1
2016-05-28T00:56:54.093Z,90.8
2016-05-28T00:57:04.078Z,90.8
2016-05-28T00:57:14.062Z,90.8
2016-05-28T00:57:24.062Z,91
2016-05-28T00:57:34.046Z,91.2
2016-05-28T00:57:44.031Z,90.9
2016-05-28T00:57:54.017Z,91
2016-05-28T00:58:04.002Z,91
2016-05-28T00:58:14.002Z,91
2016-05-28T00:58:23.986Z,91
2016-05-28T00:58:33.970Z,91
2016-05-28T00:58:43.955Z,91
2016-05-28T00:58:53.957Z,91
2016-05-28T00:59:03.941Z,91
2016-05-28T00:59:13.925Z,91
2016-05-28T00:59:23.910Z,91
2016-05-28T00:59:33.910Z,91
2016-05-28T00:59:43.894Z,90.9
2016-05-28T00:59:53.883Z,90.9
2016-05-28T01:00:03.867Z,91
2016-05-28T01:00:13.851Z,91
2016-05-28T01:00:23.851Z,90.9
2016-05-28T01:00:33.836Z,90.9
2016-05-28T01:00:43.820Z,90.9
2016-05-28T01:00:53.822Z,90.9
2016-05-28T01:01:03.806Z,91
2016-05-28T01:01:13.791Z,91
2016-05-28T01:01:23.775Z,91
2016-05-28T01:01:33.775Z,91
2016-05-28T01:01:43.760Z,91
2016-05-28T01:01:53.746Z,91.1
2016-05-28T01:02:03.730Z,91
2016-05-28T01:02:13.715Z,91
2016-05-28T01:02:23.715Z,91.1
2016-05-28T01:02:33.699Z,91
2016-05-28T01:02:43.683Z,91
2016-05-28T01:02:53.686Z,90.5
2016-05-28T01:03:03.671Z,91
2016-05-28T01:03:13.655Z,91
2016-05-28T01:03:23.640Z,91
2016-05-28T01:03:33.624Z,90.9
2016-05-28T01:03:43.624Z,91.1
2016-05-28T01:03:53.611Z,91.1
2016-05-28T01:04:03.596Z,91
2016-05-28T01:04:13.580Z,91
2016-05-28T01:04:23.564Z,91
2016-05-28T01:04:33.564Z,90.9
2016-05-28T01:04:43.549Z,91
2016-05-28T01:04:53.536Z,90.9
2016-05-28T01:05:03.521Z,91
2016-05-28T01:05:13.536Z,91.1
2016-05-28T01:05:23.505Z,91
2016-05-28T01:05:33.489Z,90.9
2016-05-28T01:05:43.474Z,91.2
2016-05-28T01:05:53.491Z,90.8
2016-05-28T01:06:03.460Z,91
2016-05-28T01:06:13.444Z,90.8
2016-05-28T01:06:23.429Z,91
2016-05-28T01:06:33.429Z,90.4
2016-05-28T01:06:43.413Z,90.9
2016-05-28T01:06:53.401Z,90.9
2016-05-28T01:07:03.385Z,91.2
2016-05-28T01:07:13.369Z,90.9
2016-05-28T01:07:23.369Z,91.3
2016-05-28T01:07:33.354Z,91
2016-05-28T01:07:43.338Z,91
2016-05-28T01:07:53.325Z,91.3
2016-05-28T01:08:03.325Z,91.1
2016-05-28T01:08:13.310Z,91.2
2016-05-28T01:08:23.294Z,91.1
2016-05-28T01:08:33.279Z,91.2
2016-05-28T01:08:43.279Z,91.3
2016-05-28T01:08:53.266Z,91.3
2016-05-28T01:09:03.250Z,91.3
2016-05-28T01:09:13.297Z,91.6
2016-05-28T01:09:23.297Z,91.8
2016-05-28T01:09:33.282Z,91.7
2016-05-28T01:09:43.203Z,92.1
2016-05-28T01:09:53.191Z,91.9
2016-05-28T01:10:03.269Z,91.5
2016-05-28T01:10:13.222Z,91.6
2016-05-28T01:10:23.160Z,91.2
2016-05-28T01:10:33.144Z,91.8
2016-05-28T01:10:43.191Z,91.6
2016-05-28T01:10:53.129Z,91.5
2016-05-28T01:11:03.114Z,91.5
2016-05-28T01:11:13.098Z,92
2016-05-28T01:11:23.098Z,91.8
2016-05-28T01:11:33.082Z,91.8
2016-05-28T01:11:43.067Z,91.7
2016-05-28T01:11:53.054Z,92
2016-05-28T01:12:03.117Z,92
2016-05-28T01:12:13.039Z,91.8
2016-05-28T01:12:23.023Z,91.8
2016-05-28T01:12:33.007Z,91.8
2016-05-28T01:12:42.992Z,91.7
2016-05-28T01:12:53.073Z,91.6
2016-05-28T01:13:02.979Z,91.5
2016-05-28T01:13:12.963Z,91.7
2016-05-28T01:13:22.948Z,91.8
2016-05-28T01:13:33.010Z,91.9
2016-05-28T01:13:42.932Z,91.6
2016-05-28T01:13:52.920Z,91.9
2016-05-28T01:14:02.904Z,92.2
2016-05-28T01:14:12.904Z,92.2
2016-05-28T01:14:22.888Z,92.2
2016-05-28T01:14:32.873Z,92.2
2016-05-28T01:14:42.920Z,92
2016-05-28T01:14:52.859Z,92
2016-05-28T01:15:02.843Z,91.8
2016-05-28T01:15:12.843Z,92
2016-05-28T01:15:22.875Z,92
2016-05-28T01:15:32.797Z,92.2
2016-05-28T01:15:42.797Z,92.4
2016-05-28T01:15:52.785Z,92.2
2016-05-28T01:16:02.769Z,92.4
2016-05-28T01:16:12.816Z,92.6
2016-05-28T01:16:22.754Z,92.6
2016-05-28T01:16:32.738Z,92.3
2016-05-28T01:16:42.722Z,92.5
2016-05-28T01:16:52.709Z,92.2
2016-05-28T01:17:02.709Z,92.7
2016-05-28T01:17:12.693Z,92.3
2016-05-28T01:17:22.678Z,92.3
2016-05-28T01:17:32.662Z,92.7
2016-05-28T01:17:42.662Z,92.6
2016-05-28T01:17:52.649Z,92.3
2016-05-28T01:18:02.634Z,92.3
2016-05-28T01:18:12.618Z,92.3
2016-05-28T01:18:22.618Z,92.2
2016-05-28T01:18:32.602Z,92.3
2016-05-28T01:18:42.587Z,92.7
2016-05-28T01:18:52.573Z,92.7
2016-05-28T01:19:02.573Z,92.5
2016-05-28T01:19:12.558Z,92.2
2016-05-28T01:19:22.542Z,92.3
2016-05-28T01:19:32.526Z,92.4
2016-05-28T01:19:42.511Z,92.5
2016-05-28T01:19:52.514Z,92.3
2016-05-28T01:20:02.639Z,92.3
2016-05-28T01:20:12.482Z,92.8
2016-05-28T01:20:22.467Z,92.7
2016-05-28T01:20:32.467Z,92.8
2016-05-28T01:20:42.451Z,92.7
2016-05-28T01:20:52.439Z,92.6
2016-05-28T01:21:02.423Z,92.6
2016-05-28T01:21:12.407Z,92.3
2016-05-28T01:21:22.407Z,92.8
2016-05-28T01:21:32.392Z,92.6
2016-05-28T01:21:42.376Z,92.3
2016-05-28T01:21:52.378Z,92.6
2016-05-28T01:22:02.362Z,92.5
2016-05-28T01:22:12.347Z,92.8
2016-05-28T01:22:22.331Z,92.3
2016-05-28T01:22:32.316Z,92.4
2016-05-28T01:22:42.316Z,92.3
2016-05-28T01:22:52.303Z,92.3
2016-05-28T01:23:02.287Z,92.5
2016-05-28T01:23:12.287Z,92.5
2016-05-28T01:23:22.256Z,92.7
2016-05-28T01:23:32.256Z,92.6
2016-05-28T01:23:42.240Z,92.7
2016-05-28T01:23:52.243Z,92.5
2016-05-28T01:24:02.228Z,92.7
2016-05-28T01:24:12.212Z,92.7
2016-05-28T01:24:22.197Z,92.4
2016-05-28T01:24:32.197Z,92.5
2016-05-28T01:24:42.181Z,92.4
2016-05-28T01:24:52.167Z,92.4
2016-05-28T01:25:02.152Z,92.4
2016-05-28T01:25:12.136Z,92.5
2016-05-28T01:25:22.136Z,92.5
2016-05-28T01:25:32.120Z,92.7
2016-05-28T01:25:42.105Z,92.5
2016-05-28T01:25:52.092Z,92.2
2016-05-28T01:26:02.077Z,92.5
2016-05-28T01:26:12.077Z,92.5
2016-05-28T01:26:22.061Z,92.5
2016-05-28T01:26:32.045Z,92.5
2016-05-28T01:26:42.030Z,92.6
2016-05-28T01:26:52.016Z,92.5
2016-05-28T01:27:02.016Z,92.5
2016-05-28T01:27:12.000Z,92.5
2016-05-28T01:27:21.985Z,92.5
2016-05-28T01:27:31.985Z,92.6
2016-05-28T01:27:41.969Z,92.4
2016-05-28T01:27:51.958Z,92.5
2016-05-28T01:28:01.942Z,92.5
2016-05-28T01:28:11.926Z,92.6
2016-05-28T01:28:21.926Z,92.6
2016-05-28T01:28:31.911Z,92.6
2016-05-28T01:28:41.895Z,92.6
2016-05-28T01:28:51.882Z,92.4
2016-05-28T01:29:01.867Z,92.4
2016-05-28T01:29:11.867Z,92.6
2016-05-28T01:29:21.851Z,92.6
2016-05-28T01:29:31.836Z,92.4
2016-05-28T01:29:41.820Z,92.5
2016-05-28T01:29:51.822Z,92.8
2016-05-28T01:30:01.806Z,92.3
2016-05-28T01:30:11.791Z,92.8
2016-05-28T01:30:21.775Z,92.5
2016-05-28T01:30:31.775Z,92.7
2016-05-28T01:30:41.759Z,92.5
2016-05-28T01:30:51.747Z,92.5
2016-05-28T01:31:01.747Z,92.3
2016-05-28T01:31:11.716Z,92.5
2016-05-28T01:31:21.716Z,92.2
2016-05-28T01:31:31.716Z,92.3
2016-05-28T01:31:41.700Z,92.5
2016-05-28T01:31:51.686Z,92.3
2016-05-28T01:32:01.671Z,92.3
2016-05-28T01:32:11.655Z,92.5
2016-05-28T01:32:21.639Z,92.4
2016-05-28T01:32:31.624Z,92.8
2016-05-28T01:32:41.624Z,92.6
2016-05-28T01:32:51.611Z,92.7
2016-05-28T01:33:01.596Z,92.8
2016-05-28T01:33:11.596Z,92.6
2016-05-28T01:33:21.580Z,92.7
2016-05-28T01:33:31.564Z,92.3
2016-05-28T01:33:41.549Z,92.3
2016-05-28T01:33:51.536Z,92.4
2016-05-28T01:34:01.536Z,92.4
2016-05-28T01:34:11.520Z,92.3
2016-05-28T01:34:21.958Z,92.2
2016-05-28T01:34:31.802Z,92.2
2016-05-28T01:34:41.489Z,92.3
2016-05-28T01:34:51.476Z,92.4
2016-05-28T01:35:01.460Z,92.5
2016-05-28T01:35:11.444Z,92.7
2016-05-28T01:35:21.429Z,92.7
2016-05-28T01:35:31.429Z,92.3
2016-05-28T01:35:41.413Z,92.4
2016-05-28T01:35:51.400Z,92.5
2016-05-28T01:36:01.400Z,92
2016-05-28T01:36:11.385Z,91.9
2016-05-28T01:36:21.369Z,92.4
2016-05-28T01:36:31.354Z,92.5
2016-05-28T01:36:41.338Z,92.5
2016-05-28T01:36:51.341Z,92.5
2016-05-28T01:37:01.325Z,92.6
2016-05-28T01:37:11.310Z,92.6
2016-05-28T01:37:21.294Z,92.5
2016-05-28T01:37:31.294Z,92.4
2016-05-28T01:37:41.278Z,92.6
2016-05-28T01:37:51.265Z,92.5
2016-05-28T01:38:01.249Z,92.4
2016-05-28T01:38:11.234Z,92
2016-05-28T01:38:21.234Z,91.8
2016-05-28T01:38:31.234Z,91.8
2016-05-28T01:38:41.202Z,91.9
2016-05-28T01:38:51.190Z,92.2
2016-05-28T01:39:01.190Z,92
2016-05-28T01:39:11.174Z,92.2
2016-05-28T01:39:21.158Z,92.1
2016-05-28T01:39:31.143Z,92.1
2016-05-28T01:39:41.143Z,92
2016-05-28T01:39:51.129Z,92.1
2016-05-28T01:40:01.114Z,91.8
2016-05-28T01:40:11.098Z,92
2016-05-28T01:40:21.098Z,92.2
2016-05-28T01:40:31.082Z,91.7
2016-05-28T01:40:41.067Z,92
2016-05-28T01:40:51.055Z,92.2
2016-05-28T01:41:01.039Z,92
2016-05-28T01:41:11.039Z,92.1
2016-05-28T01:41:21.024Z,91.9
2016-05-28T01:41:31.024Z,92.1
2016-05-28T01:41:41.008Z,92.2
2016-05-28T01:41:50.995Z,92.2
2016-05-28T01:42:00.979Z,91.9
2016-05-28T01:42:10.963Z,91.9
2016-05-28T01:42:20.963Z,92
2016-05-28T01:42:30.948Z,91.9
2016-05-28T01:42:40.932Z,92.3
2016-05-28T01:42:50.919Z,92.3
2016-05-28T01:43:00.919Z,92.5
2016-05-28T01:43:10.904Z,92.5
2016-05-28T01:43:20.888Z,92.6
2016-05-28T01:43:30.873Z,92.4
2016-05-28T01:43:40.873Z,92.7
2016-05-28T01:43:50.844Z,92.5
2016-05-28T01:44:00.844Z,92.3
2016-05-28T01:44:10.829Z,92.7
2016-05-28T01:44:20.813Z,92.4
2016-05-28T01:44:30.813Z,92.4
2016-05-28T01:44:40.797Z,92.5
2016-05-28T01:44:50.784Z,92.3
2016-05-28T01:45:00.768Z,92.4
2016-05-28T01:45:10.753Z,92.2
2016-05-28T01:45:20.753Z,92.7
2016-05-28T01:45:30.737Z,92.1
2016-05-28T01:45:40.721Z,92.2
2016-05-28T01:45:50.724Z,92.5
2016-05-28T01:46:00.709Z,92.4
2016-05-28T01:46:10.693Z,92.4
2016-05-28T01:46:20.677Z,92.8
2016-05-28T01:46:30.662Z,92.6
2016-05-28T01:46:40.662Z,92.4
2016-05-28T01:46:50.649Z,92.5
2016-05-28T01:47:00.634Z,92.2
2016-05-28T01:47:10.618Z,92.2
2016-05-28T01:47:20.602Z,92.2
2016-05-28T01:47:30.602Z,91.8
2016-05-28T01:47:40.587Z,91.9
2016-05-28T01:47:50.573Z,91.8
2016-05-28T01:48:00.573Z,92
2016-05-28T01:48:10.557Z,92
2016-05-28T01:48:20.542Z,92.2
2016-05-28T01:48:30.526Z,91.9
2016-05-28T01:48:40.511Z,92.1
2016-05-28T01:48:50.514Z,92.1
2016-05-28T01:49:00.498Z,92.2
2016-05-28T01:49:10.482Z,91.8
2016-05-28T01:49:20.467Z,92
2016-05-28T01:49:31.310Z,92.3
2016-05-28T01:49:40.451Z,92.4
2016-05-28T01:49:50.438Z,92.1
2016-05-28T01:50:00.423Z,92.3
2016-05-28T01:50:10.735Z,92.3
2016-05-28T01:50:20.407Z,92.3
2016-05-28T01:50:30.392Z,92.3
2016-05-28T01:50:40.376Z,92.5
2016-05-28T01:50:50.362Z,92.6
2016-05-28T01:51:00.362Z,92.3
2016-05-28T01:51:10.347Z,92.2
2016-05-28T01:51:20.347Z,92.7
2016-05-28T01:51:30.315Z,92.5
2016-05-28T01:51:40.315Z,92.7
2016-05-28T01:51:50.303Z,92.6
2016-05-28T01:52:00.287Z,92.6
2016-05-28T01:52:10.272Z,92.6
2016-05-28T01:52:20.272Z,92.5
2016-05-28T01:52:30.256Z,92.7
2016-05-28T01:52:40.240Z,92.5
2016-05-28T01:52:50.225Z,92.2
2016-05-28T01:53:00.227Z,92.2
2016-05-28T01:53:10.211Z,92.2
2016-05-28T01:53:20.195Z,92.6
2016-05-28T01:53:30.180Z,92.6
2016-05-28T01:53:40.164Z,92.3
2016-05-28T01:53:50.164Z,92.3
2016-05-28T01:54:00.152Z,92.2
2016-05-28T01:54:10.136Z,92.3
2016-05-28T01:54:20.120Z,92.3
2016-05-28T01:54:30.120Z,92.4
2016-05-28T01:54:40.120Z,92.7
2016-05-28T01:54:50.089Z,92.2
2016-05-28T01:55:00.076Z,92.5
2016-05-28T01:55:10.076Z,92.5
2016-05-28T01:55:20.061Z,92.3
2016-05-28T01:55:30.045Z,92.7
2016-05-28T01:55:40.030Z,92.5
2016-05-28T01:55:50.014Z,92.5
2016-05-28T01:56:00.017Z,92.6
2016-05-28T01:56:10.001Z,92.4
2016-05-28T01:56:19.986Z,92.4
2016-05-28T01:56:29.970Z,92.5
2016-05-28T01:56:39.970Z,92.2
2016-05-28T01:56:49.954Z,92.5
2016-05-28T01:56:59.942Z,92.8
2016-05-28T01:57:09.926Z,92.3
2016-05-28T01:57:19.926Z,92.3
2016-05-28T01:57:29.911Z,93.4
2016-05-28T01:57:39.895Z,93
2016-05-28T01:57:49.879Z,93.3
2016-05-28T01:57:59.881Z,93.3
2016-05-28T01:58:09.866Z,93.2
2016-05-28T01:58:19.850Z,92.8
2016-05-28T01:58:29.834Z,93.4
2016-05-28T01:58:39.834Z,93.6
2016-05-28T01:58:49.819Z,93.2
2016-05-28T01:58:59.806Z,93.3
2016-05-28T01:59:09.791Z,93.1
2016-05-28T01:59:19.775Z,93.6
2016-05-28T01:59:29.775Z,93.5
2016-05-28T01:59:39.759Z,93.5
2016-05-28T01:59:49.759Z,93.4
2016-05-28T01:59:59.747Z,93.5
2016-05-28T02:00:09.747Z,93.6
2016-05-28T02:00:19.715Z,93.4
2016-05-28T02:00:29.700Z,93.8
2016-05-28T02:00:39.684Z,93.8
2016-05-28T02:00:49.669Z,94
2016-05-28T02:00:59.671Z,94
2016-05-28T02:01:09.655Z,94.1
2016-05-28T02:01:19.639Z,94
2016-05-28T02:01:29.639Z,94.3
2016-05-28T02:01:39.624Z,94
2016-05-28T02:01:49.608Z,94.1
2016-05-28T02:01:59.595Z,94.1
2016-05-28T02:02:09.595Z,94.1
2016-05-28T02:02:19.580Z,93.7
2016-05-28T02:02:29.564Z,94.1
2016-05-28T02:02:39.549Z,94
2016-05-28T02:02:49.533Z,94
2016-05-28T02:02:59.535Z,94.1
2016-05-28T02:03:09.519Z,94
2016-05-28T02:03:19.504Z,94
2016-05-28T02:03:29.488Z,94.2
2016-05-28T02:03:39.472Z,94
2016-05-28T02:03:49.472Z,94.2
2016-05-28T02:03:59.460Z,94.1
2016-05-28T02:04:09.444Z,94
2016-05-28T02:04:19.444Z,94
2016-05-28T02:04:29.929Z,94
2016-05-28T02:04:39.944Z,94
2016-05-28T02:04:49.397Z,94.2
2016-05-28T02:04:59.760Z,94
2016-05-28T02:05:09.385Z,94.1
2016-05-28T02:05:19.588Z,94.3
2016-05-28T02:05:29.353Z,94.3
2016-05-28T02:05:39.338Z,94
2016-05-28T02:05:49.338Z,94
2016-05-28T02:05:59.325Z,94
2016-05-28T02:06:09.310Z,93.8
2016-05-28T02:06:19.294Z,94
2016-05-28T02:06:29.294Z,94
2016-05-28T02:06:39.278Z,94
2016-05-28T02:06:49.263Z,94.2
2016-05-28T02:06:59.250Z,94
2016-05-28T02:07:09.234Z,94.1
2016-05-28T02:07:19.234Z,94
2016-05-28T02:07:29.219Z,94.3
2016-05-28T02:07:39.203Z,94.2
2016-05-28T02:07:49.203Z,93.7
2016-05-28T02:07:59.190Z,94
2016-05-28T02:08:09.174Z,94
2016-05-28T02:08:19.158Z,94.2
2016-05-28T02:08:29.143Z,94.2
2016-05-28T02:08:39.127Z,94.1
2016-05-28T02:08:49.127Z,94.1
2016-05-28T02:08:59.114Z,94.2
2016-05-28T02:09:09.099Z,93.9
2016-05-28T02:09:19.099Z,93.9
2016-05-28T02:09:29.083Z,93.5
2016-05-28T02:09:39.068Z,93.6
2016-05-28T02:09:49.052Z,93.3
2016-05-28T02:09:59.055Z,93.5
2016-05-28T02:10:09.039Z,93.4
2016-05-28T02:10:19.024Z,93.3
2016-05-28T02:10:29.008Z,93.3
2016-05-28T02:10:38.992Z,94.1
2016-05-28T02:10:48.992Z,94
2016-05-28T02:10:58.980Z,93.9
2016-05-28T02:11:08.980Z,93.9
2016-05-28T02:11:18.949Z,94
2016-05-28T02:11:28.949Z,94.1
2016-05-28T02:11:38.933Z,94.4
2016-05-28T02:11:48.917Z,94
2016-05-28T02:11:58.919Z,94.4
2016-05-28T02:12:08.888Z,94
2016-05-28T02:12:18.888Z,94.3
2016-05-28T02:12:28.872Z,94.2
2016-05-28T02:12:38.857Z,94
2016-05-28T02:12:48.857Z,94.1
2016-05-28T02:12:58.843Z,94.2
2016-05-28T02:13:08.828Z,94.2
2016-05-28T02:13:18.812Z,94.1
2016-05-28T02:13:28.812Z,94.1
2016-05-28T02:13:38.796Z,94
2016-05-28T02:13:48.781Z,94.2
2016-05-28T02:13:58.768Z,94
2016-05-28T02:14:08.752Z,94
2016-05-28T02:14:18.737Z,94.2
2016-05-28T02:14:28.737Z,93.7